• Join FlightAware (Why Join?)
  • Login
  • US Flag 
08:14PM EDT


 

Airport Tracker/Info


-or-


 

Live Flight TrackerFlight Track Log ✈ N771FF ✈ 30-Mar-2014 ✈ KPIE - KAPF

Flight Track Log - Related Links

Times and Time Zones

All times are in EDT time to prevent confusion due to time zone crossing. See the N771FF flight status page for this flight to view local times or setup timezone preferences in your user account.

Time Position Orientation Groundspeed Altitude Reporting Facility
EDT Latitude Longitude Course Direction KTS MPH feet Rate Location/Type
06:24PM 27.9167 -82.6833 291° West 141 162 500  Level Tampa TRACON
06:25PM 27.9333 -82.7333 291° West 163 188 1,900 1,560 Climbing Tampa TRACON
06:26PM 27.9000 -82.7667 221° Southwest 212 244 3,500 1,800 Climbing Tampa TRACON
06:27PM 27.8333 -82.7500 168° South 209 241 5,500 1,920 Climbing Tampa TRACON
06:28PM 27.7833 -82.7333 164° South 207 238 7,400 1,920 Climbing Tampa TRACON
06:29PM 27.7333 -82.7167 164° South 217 250 9,400 1,800 Climbing Tampa TRACON
06:30PM 27.6667 -82.6833 156° South 220 253 11,100 780 Climbing Tampa TRACON
06:31PM 27.6000 -82.6333 146° Southeast 287 330 11,000 -60 Descending Tampa TRACON
06:32PM 27.5333 -82.6000 156° South 285 328 11,000  Level Tampa TRACON
06:33PM 27.4667 -82.5500 146° Southeast 285 328 11,000  Level Tampa TRACON
06:34PM 27.4000 -82.5167 156° South 287 330 11,000  Level Tampa TRACON
06:36PM 27.2964 -82.4558 152° Southeast 338 389 11,000  Level Miami Center
06:37PM 27.2194 -82.4497 176° South 291 335 11,000  Level Miami Center
06:38PM 27.1406 -82.4414 175° South 285 328 11,000  Level Miami Center
06:39PM 27.0597 -82.4306 173° South 285 328 11,000  Level Miami Center
06:40PM 26.9808 -82.4197 173° South 291 335 11,000  Level Miami Center
06:41PM 26.9017 -82.4114 175° South 286 329 11,000  Level Miami Center
06:42PM 26.8228 -82.4006 173° South 291 335 11,000  Level Miami Center
06:43PM 26.7439 -82.3897 173° South 291 335 11,000  Level Miami Center
06:44PM 26.6650 -82.3792 173° South 291 335 11,000  Level Miami Center
06:45PM 26.5908 -82.3547 164° South 285 328 11,000  Level Miami Center
06:46PM 26.5175 -82.3025 147° Southeast 279 321 11,000 -120 Level Miami Center
06:47PM 26.4486 -82.2531 147° Southeast 292 336 10,800 -600 Descending Miami Center
06:48PM 26.3794 -82.2036 147° Southeast 292 336 9,800 -1,200 Descending Miami Center
06:49PM 26.3103 -82.1542 147° Southeast 292 336 8,500 -1,320 Descending Miami Center
06:50PM 26.2539 -82.0961 137° Southeast 287 330 7,200 -1,260 Descending Miami Center
06:51PM 26.2525 -82.0194 91° East 231 266 6,000 -1,200 Descending Miami Center
06:52PM 26.2550 -81.9408 88° East 242 278 4,800 -1,200 Descending Miami Center
06:54PM 26.1915 -81.8220 130° Southeast  Level FlightAware Approximate
07:01PM 26.1524 -81.7756 130° Southeast  Level Estimated
07:02PM 26.1524 -81.7756 107° East  Level Estimated
07:03PM 26.1524 -81.7756 130° Southeast  Level Estimated
07:04PM 26.1524 -81.7756 107° East  Level Estimated